Time;durP1;ratioP1;P1;durP2;ratioP2;P2;SDS_P1;SDS_P2;PMS_P1;PMS_P2;Temp;Humidity;BMP_temperature;BMP_pressure;BME280_temperature;BME280_humidity;BME280_pressure;Samples;Min_cycle;Max_cycle;Signal;HPM_P1;HPM_P2
2023/03/05 00:00:46;;;;;;;11.82;3.60;;;2.40;99.90;;;0.67;100.00;101008.44;4989054;28;20405;-81
2023/03/05 00:03:11;;;;;;;13.73;3.97;;;2.40;99.90;;;0.64;100.00;101008.72;4990847;28;20034;-82
2023/03/05 00:05:37;;;;;;;9.60;3.50;;;2.40;99.90;;;0.62;100.00;101001.78;4989254;28;20122;-80
2023/03/05 00:08:03;;;;;;;9.85;3.15;;;2.40;99.90;;;0.64;100.00;101005.19;4990146;28;20108;-82
2023/03/05 00:10:29;;;;;;;14.43;3.72;;;2.40;99.90;;;0.66;100.00;101012.13;4990740;28;20038;-80
2023/03/05 00:12:55;;;;;;;17.95;3.97;;;2.40;99.90;;;0.67;100.00;100997.69;4989101;28;20470;-82
2023/03/05 00:15:20;;;;;;;10.55;3.20;;;2.40;99.90;;;0.66;100.00;101006.75;5003086;28;20041;-81
2023/03/05 00:17:46;;;;;;;14.75;3.42;;;2.40;99.90;;;0.69;100.00;100998.41;4990816;28;20485;-82
2023/03/05 00:20:12;;;;;;;11.75;2.92;;;2.40;99.90;;;0.76;100.00;101000.50;4991038;28;20034;-81
2023/03/05 00:22:38;;;;;;;14.02;3.97;;;2.40;99.90;;;0.68;100.00;100993.19;4990159;28;20042;-83
2023/03/05 00:25:05;;;;;;;12.70;3.30;;;2.40;99.90;;;0.63;100.00;100990.91;4990049;28;20134;-83
2023/03/05 00:27:30;;;;;;;10.40;3.45;;;2.40;99.90;;;0.63;100.00;100982.84;4990423;28;20118;-82
2023/03/05 00:29:56;;;;;;;13.52;2.75;;;2.40;99.90;;;0.67;100.00;100995.00;5005017;28;20173;-81
2023/03/05 00:32:22;;;;;;;12.63;2.72;;;2.40;99.90;;;0.61;100.00;100978.59;4989529;28;20035;-80
2023/03/05 00:34:48;;;;;;;9.55;2.83;;;2.40;99.90;;;0.60;100.00;100975.09;4995334;28;20355;-79
2023/03/05 00:37:15;;;;;;;13.77;3.13;;;2.40;99.90;;;0.63;100.00;100977.50;4988070;28;20066;-81
2023/03/05 00:39:41;;;;;;;10.70;3.72;;;2.40;99.90;;;0.69;100.00;100968.03;5003676;28;20031;-82
2023/03/05 00:42:07;;;;;;;7.95;2.58;;;2.40;99.90;;;0.63;100.00;100961.38;4989061;28;20081;-79
2023/03/05 00:44:33;;;;;;;10.73;2.90;;;2.40;99.90;;;0.62;100.00;100959.69;4984610;28;20046;-81
2023/03/05 00:46:58;;;;;;;9.73;3.13;;;2.40;99.90;;;0.64;100.00;100967.56;4988259;28;20034;-82
2023/03/05 00:49:24;;;;;;;9.48;2.60;;;2.40;99.90;;;0.60;100.00;100950.94;4990443;28;20050;-79
2023/03/05 00:51:50;;;;;;;9.68;2.35;;;2.30;99.90;;;0.61;100.00;100959.81;4990135;28;20041;-81
2023/03/05 00:54:16;;;;;;;9.25;2.63;;;2.30;99.90;;;0.62;100.00;100954.31;5005472;28;20088;-81
2023/03/05 00:56:42;;;;;;;10.25;2.85;;;2.30;99.90;;;0.54;100.00;100948.81;4983806;28;20050;-80
2023/03/05 00:59:08;;;;;;;10.25;2.00;;;2.30;99.90;;;0.58;100.00;100955.59;4990004;28;20066;-81
2023/03/05 01:01:34;;;;;;;12.25;2.40;;;2.30;99.90;;;0.54;100.00;100951.50;4988682;28;20031;-81
2023/03/05 01:04:01;;;;;;;9.05;2.10;;;2.30;99.90;;;0.53;100.00;100939.03;4990267;28;20386;-80
2023/03/05 01:06:28;;;;;;;15.68;2.75;;;2.30;99.90;;;0.55;100.00;100942.47;5000658;28;20031;-79
2023/03/05 01:08:55;;;;;;;8.48;1.90;;;2.30;99.90;;;0.44;100.00;100927.34;4989993;28;20038;-80
2023/03/05 01:11:21;;;;;;;12.48;2.38;;;2.20;99.90;;;0.50;100.00;100928.59;4989869;28;20030;-81
2023/03/05 01:13:47;;;;;;;9.77;2.25;;;2.20;99.90;;;0.45;100.00;100921.00;4988562;28;20042;-81
2023/03/05 01:16:13;;;;;;;11.73;2.78;;;2.20;99.90;;;0.51;100.00;100919.53;4989444;28;20026;-80
2023/03/05 01:18:39;;;;;;;9.30;2.10;;;2.20;99.90;;;0.46;100.00;100909.25;4989708;28;20066;-81
2023/03/05 01:21:06;;;;;;;9.48;2.35;;;2.20;99.90;;;0.57;100.00;100924.38;4990270;28;20026;-80
2023/03/05 01:23:34;;;;;;;12.02;2.33;;;2.20;99.90;;;0.60;100.00;100918.69;4990269;28;20548;-79
2023/03/05 01:26:00;;;;;;;9.85;2.70;;;2.20;99.90;;;0.52;100.00;100903.31;4989954;28;20038;-80
2023/03/05 01:28:27;;;;;;;15.10;2.75;;;2.30;99.90;;;0.57;100.00;100903.72;4972360;28;20038;-80
2023/03/05 01:30:53;;;;;;;17.70;2.53;;;2.30;99.90;;;0.54;100.00;100893.25;4989846;28;20096;-80
2023/03/05 01:33:19;;;;;;;12.38;2.95;;;2.30;99.90;;;0.56;100.00;100898.50;4989771;28;20031;-81
2023/03/05 01:35:48;;;;;;;13.82;2.72;;;2.30;99.90;;;0.51;100.00;100885.50;4986422;28;20485;-80
2023/03/05 01:38:15;;;;;;;9.60;2.45;;;2.30;99.90;;;0.56;100.00;100890.44;4993044;28;20027;-79
2023/03/05 01:40:42;;;;;;;11.43;2.38;;;2.30;99.90;;;0.59;100.00;100886.59;4990125;28;20098;-79
2023/03/05 01:43:11;;;;;;;14.52;2.60;;;2.30;99.90;;;0.65;100.00;100891.38;5004877;28;20049;-79
2023/03/05 01:45:58;;;;;;;13.13;2.85;;;2.30;99.90;;;0.65;100.00;100881.50;4989735;28;20038;-81
2023/03/05 01:48:24;;;;;;;13.10;3.08;;;2.30;99.90;;;0.58;100.00;100877.72;4985894;28;20050;-79
2023/03/05 01:50:49;;;;;;;15.32;2.55;;;2.40;99.90;;;0.61;100.00;100871.19;4989727;28;20042;-80
2023/03/05 01:53:15;;;;;;;11.23;2.85;;;2.40;99.90;;;0.60;100.00;100866.81;4993807;28;20034;-80
2023/03/05 01:55:41;;;;;;;12.40;3.00;;;2.30;99.90;;;0.60;100.00;100870.38;4988649;28;20046;-80
2023/03/05 01:58:12;;;;;;;17.30;2.83;;;2.30;99.90;;;0.61;100.00;100868.50;4988143;28;20058;-80
2023/03/05 02:00:52;;;;;;;9.43;2.45;;;2.30;99.90;;;0.60;100.00;100867.69;4990873;28;20133;-80
2023/03/05 02:03:21;;;;;;;14.68;2.75;;;2.30;99.90;;;0.58;100.00;100872.34;4993425;28;20121;-79
2023/03/05 02:05:46;;;;;;;12.73;2.80;;;2.30;99.90;;;0.65;100.00;100862.72;4993056;28;20089;-80
2023/03/05 02:08:16;;;;;;;13.63;2.50;;;2.40;99.90;;;0.69;100.00;100869.47;4993456;28;20042;-79
2023/03/05 02:10:50;;;;;;;16.50;2.75;;;2.40;99.90;;;0.73;100.00;100869.19;4990708;28;20034;-80
2023/03/05 02:13:22;;;;;;;14.82;2.90;;;2.50;99.90;;;0.71;100.00;100858.59;4992811;28;20544;-79
2023/03/05 02:15:49;;;;;;;13.10;2.45;;;2.40;99.90;;;0.74;100.00;100860.13;4991588;28;20050;-80
2023/03/05 02:18:17;;;;;;;16.23;4.13;;;2.50;99.90;;;0.73;100.00;100856.63;4991112;28;20042;-79
2023/03/05 02:20:55;;;;;;;10.10;2.58;;;2.40;99.90;;;0.73;100.00;100851.25;4970326;28;20061;-80
2023/03/05 02:23:24;;;;;;;13.82;2.38;;;2.50;99.90;;;0.73;100.00;100853.94;4986220;28;20034;-80
2023/03/05 02:25:50;;;;;;;12.55;2.33;;;2.40;99.90;;;0.68;100.00;100848.97;4990980;28;20034;-79
2023/03/05 02:28:27;;;;;;;11.73;2.40;;;2.40;99.90;;;0.75;100.00;100851.06;4990492;28;20335;-78
2023/03/05 02:30:53;;;;;;;11.60;2.22;;;2.50;99.90;;;0.74;100.00;100841.31;4982281;28;20508;-79
2023/03/05 02:33:20;;;;;;;13.20;2.90;;;2.50;99.90;;;0.75;100.00;100837.66;4982817;28;20497;-80
2023/03/05 02:35:46;;;;;;;14.05;2.17;;;2.50;99.90;;;0.79;100.00;100829.16;4990584;28;20093;-80
2023/03/05 02:38:16;;;;;;;13.55;2.17;;;2.50;99.90;;;0.80;100.00;100844.28;4966185;28;20487;-78
2023/03/05 02:40:42;;;;;;;9.70;1.98;;;2.50;99.90;;;0.82;100.00;100828.84;4992225;28;20038;-77
2023/03/05 02:43:09;;;;;;;13.63;2.60;;;2.50;99.90;;;0.82;100.00;100828.03;4992236;28;20048;-79
2023/03/05 02:45:36;;;;;;;11.13;2.40;;;2.60;99.90;;;0.81;100.00;100834.38;4985493;28;20042;-79
2023/03/05 02:48:02;;;;;;;10.40;2.13;;;2.50;99.90;;;0.79;100.00;100818.41;4991760;28;20292;-77
2023/03/05 02:50:28;;;;;;;10.13;2.20;;;2.60;99.90;;;0.82;100.00;100828.84;5006275;28;20042;-76
2023/03/05 02:52:54;;;;;;;17.00;2.65;;;2.50;99.90;;;0.80;100.00;100819.28;4992103;28;20031;-78
2023/03/05 02:55:21;;;;;;;15.90;3.13;;;2.60;99.90;;;0.80;100.00;100816.59;4991610;28;20135;-77
2023/03/05 02:57:47;;;;;;;15.05;2.78;;;2.50;99.90;;;0.79;100.00;100814.88;4992981;28;20505;-79
2023/03/05 03:00:13;;;;;;;10.35;2.22;;;2.50;99.90;;;0.78;100.00;100815.84;5005155;28;20034;-78
2023/03/05 03:02:39;;;;;;;12.05;2.72;;;2.50;99.90;;;0.74;100.00;100796.53;4988302;28;20054;-80
2023/03/05 03:05:06;;;;;;;10.25;2.63;;;2.50;99.90;;;0.77;100.00;100803.44;4993111;28;20053;-81
2023/03/05 03:07:33;;;;;;;10.63;2.65;;;2.60;99.90;;;0.79;100.00;100809.50;4993133;28;20135;-79
2023/03/05 03:09:59;;;;;;;10.63;2.70;;;2.50;99.90;;;0.77;100.00;100800.75;4991568;28;20049;-77
2023/03/05 03:12:24;;;;;;;9.23;2.53;;;2.50;99.90;;;0.76;100.00;100794.53;4990315;28;20300;-78
2023/03/05 03:14:50;;;;;;;11.60;2.25;;;2.50;99.90;;;0.80;100.00;100803.16;4992681;28;20038;-78
2023/03/05 03:17:18;;;;;;;10.90;2.88;;;2.50;99.90;;;0.83;100.00;100797.47;4990761;28;20486;-79
2023/03/05 03:19:45;;;;;;;9.57;2.58;;;2.50;99.90;;;0.79;100.00;100793.38;4986558;28;20526;-79
2023/03/05 03:22:13;;;;;;;11.98;2.70;;;2.50;99.90;;;0.75;100.00;100800.03;4992032;28;20031;-80
2023/03/05 03:24:41;;;;;;;10.20;2.85;;;2.50;99.90;;;0.74;100.00;100791.16;4991901;28;20097;-79
2023/03/05 03:27:07;;;;;;;11.93;3.30;;;2.40;99.90;;;0.69;100.00;100791.59;4990802;28;20034;-79
2023/03/05 03:29:33;;;;;;;14.75;3.28;;;2.40;99.90;;;0.60;100.00;100779.06;4991988;28;20084;-78
2023/03/05 03:31:59;;;;;;;9.52;3.10;;;2.40;99.90;;;0.61;100.00;100772.69;4990073;28;20429;-80
2023/03/05 03:34:24;;;;;;;12.75;2.90;;;2.40;99.90;;;0.51;100.00;100762.00;4991950;28;20050;-78
2023/03/05 03:36:54;;;;;;;12.50;2.80;;;2.30;99.90;;;0.51;100.00;100775.41;4990774;28;20043;-79
2023/03/05 03:39:20;;;;;;;8.98;2.95;;;2.30;99.90;;;0.50;100.00;100773.72;4990466;28;20041;-79
2023/03/05 03:41:49;;;;;;;8.82;3.15;;;2.20;99.90;;;0.48;100.00;100766.81;4978070;28;20035;-79
2023/03/05 03:44:17;;;;;;;11.50;2.83;;;2.20;99.90;;;0.39;100.00;100749.75;4990359;28;20046;-79
2023/03/05 03:46:46;;;;;;;8.70;3.17;;;2.20;99.90;;;0.42;100.00;100758.34;5005554;28;20045;-79
2023/03/05 03:49:22;;;;;;;8.05;2.88;;;2.20;99.90;;;0.40;100.00;100752.28;4990805;28;20532;-79
2023/03/05 03:51:50;;;;;;;8.77;3.45;;;2.10;99.90;;;0.40;100.00;100752.28;4989760;28;20449;-80
2023/03/05 03:54:17;;;;;;;;;;;2.20;99.90;;;0.38;100.00;100740.00;4991159;28;20552;-79
2023/03/05 03:56:43;;;;;;;7.80;3.05;;;2.10;99.90;;;0.32;100.00;100738.78;4991222;28;19921;-79
2023/03/05 03:59:10;;;;;;;13.70;3.83;;;2.10;99.90;;;0.32;100.00;100736.09;4990729;28;20053;-80
2023/03/05 04:01:36;;;;;;;14.50;3.88;;;2.10;99.90;;;0.35;100.00;100737.63;4990295;28;20041;-80
2023/03/05 04:04:03;;;;;;;10.73;3.88;;;2.00;99.90;;;0.34;100.00;100735.91;4991149;28;20493;-81
2023/03/05 04:06:29;;;;;;;11.65;3.75;;;2.10;99.90;;;0.33;100.00;100724.34;4991388;28;20038;-81
2023/03/05 04:08:55;;;;;;;11.32;3.90;;;2.00;99.90;;;0.32;100.00;100724.50;4989892;28;20072;-81
2023/03/05 04:11:21;;;;;;;9.50;3.42;;;2.10;99.90;;;0.32;100.00;100730.72;4992008;28;20034;-81
2023/03/05 04:13:47;;;;;;;7.32;3.22;;;2.00;99.90;;;0.31;100.00;100722.81;4990830;28;20141;-78
2023/03/05 04:16:14;;;;;;;11.57;3.95;;;2.00;99.90;;;0.33;100.00;100724.34;4985466;28;20129;-80
2023/03/05 04:18:41;;;;;;;8.97;3.70;;;2.10;99.90;;;0.37;100.00;100719.53;4983822;28;20042;-80
2023/03/05 04:21:08;;;;;;;9.23;3.70;;;2.10;99.90;;;0.35;100.00;100722.38;4990459;28;20280;-79
2023/03/05 04:23:34;;;;;;;12.30;4.00;;;2.10;99.90;;;0.41;100.00;100724.44;4990522;28;20042;-81
2023/03/05 04:25:59;;;;;;;12.43;4.47;;;2.10;99.90;;;0.41;100.00;100715.56;4991227;28;20524;-80
2023/03/05 04:28:25;;;;;;;11.60;4.78;;;2.20;99.90;;;0.42;100.00;100714.56;4991072;28;20042;-81
2023/03/05 04:30:51;;;;;;;7.80;3.92;;;2.10;99.90;;;0.49;100.00;100710.28;4990943;28;20486;-80
2023/03/05 04:33:17;;;;;;;12.73;3.80;;;2.20;99.90;;;0.49;100.00;100715.66;4990598;28;20064;-80
2023/03/05 04:35:43;;;;;;;9.55;3.25;;;2.20;99.90;;;0.50;100.00;100703.94;4990170;28;20081;-80
2023/03/05 04:38:09;;;;;;;9.45;4.30;;;2.20;99.90;;;0.52;100.00;100703.75;4990765;28;20421;-80
2023/03/05 04:40:36;;;;;;;8.98;3.15;;;2.30;99.90;;;0.58;100.00;100713.94;4991212;28;20034;-79
2023/03/05 04:43:03;;;;;;;11.32;3.40;;;2.30;99.90;;;0.63;100.00;100700.88;4983654;28;20116;-81
2023/03/05 04:45:29;;;;;;;11.90;3.97;;;2.30;99.90;;;0.64;100.00;100716.00;5004160;28;20042;-78
2023/03/05 04:47:55;;;;;;;8.85;2.92;;;2.30;99.90;;;0.58;100.00;100692.44;4990521;28;20547;-79
2023/03/05 04:50:21;;;;;;;12.38;3.85;;;2.30;99.90;;;0.64;100.00;100702.59;4988537;28;20089;-77
2023/03/05 04:52:47;;;;;;;10.05;3.50;;;2.30;99.90;;;0.62;100.00;100707.25;4990714;28;20043;-80
2023/03/05 04:55:15;;;;;;;9.20;3.40;;;2.30;99.90;;;0.62;100.00;100699.19;4990525;28;20458;-80
2023/03/05 04:57:41;;;;;;;8.30;3.47;;;2.30;99.90;;;0.63;100.00;100716.13;4989100;28;20045;-79
2023/03/05 05:00:13;;;;;;;10.38;3.80;;;2.30;99.90;;;0.64;100.00;100702.59;4988977;28;20379;-81
2023/03/05 05:02:44;;;;;;;10.68;3.42;;;2.30;99.90;;;0.65;100.00;100698.03;4989447;28;20038;-81
2023/03/05 05:05:15;;;;;;;8.98;3.15;;;2.40;99.90;;;0.63;100.00;100705.41;4990576;28;20054;-80
2023/03/05 05:07:40;;;;;;;9.70;3.20;;;2.40;99.90;;;0.64;100.00;100693.66;4981414;28;20479;-81
2023/03/05 05:10:09;;;;;;;7.68;2.97;;;2.30;99.90;;;0.69;100.00;100696.75;4986228;28;20097;-81
2023/03/05 05:12:35;;;;;;;11.07;3.22;;;2.40;99.90;;;0.64;100.00;100691.84;4987196;28;20157;-82
2023/03/05 05:15:03;;;;;;;9.43;3.15;;;2.40;99.90;;;0.63;100.00;100691.97;4984222;28;20026;-80
2023/03/05 05:17:31;;;;;;;10.80;3.28;;;2.40;99.90;;;0.62;100.00;100687.59;4987880;28;20127;-82
2023/03/05 05:19:58;;;;;;;10.70;3.05;;;2.40;99.90;;;0.62;100.00;100685.78;4989690;28;20026;-79
2023/03/05 05:22:26;;;;;;;7.20;3.17;;;2.40;99.90;;;0.62;100.00;100688.47;4990934;28;20037;-80
2023/03/05 05:24:52;;;;;;;6.13;3.10;;;2.40;99.90;;;0.65;100.00;100687.28;5005611;28;20065;-79
2023/03/05 05:27:17;;;;;;;8.43;2.90;;;2.40;99.90;;;0.63;100.00;100687.47;4997462;28;20026;-80
2023/03/05 05:29:45;;;;;;;8.82;3.28;;;2.40;99.90;;;0.63;100.00;100691.97;4973792;28;20482;-80
2023/03/05 05:32:11;;;;;;;8.85;3.25;;;2.30;99.90;;;0.63;100.00;100682.09;4991264;28;20084;-80
2023/03/05 05:34:36;;;;;;;11.45;3.65;;;2.30;99.90;;;0.61;100.00;100685.91;4976644;28;20038;-80
2023/03/05 05:37:02;;;;;;;10.32;3.08;;;2.40;99.90;;;0.63;100.00;100678.53;4993714;28;20092;-82
2023/03/05 05:39:28;;;;;;;12.52;3.20;;;2.30;99.90;;;0.61;100.00;100684.09;4993998;28;20034;-79
2023/03/05 05:41:54;;;;;;;7.55;3.65;;;2.30;99.90;;;0.59;100.00;100677.16;4991820;28;20042;-79
2023/03/05 05:44:19;;;;;;;10.45;3.40;;;2.30;99.90;;;0.52;100.00;100669.72;4992632;28;20100;-80
2023/03/05 05:46:45;;;;;;;11.60;3.20;;;2.30;99.90;;;0.46;100.00;100678.38;4993485;28;20035;-79
2023/03/05 05:49:11;;;;;;;10.75;3.10;;;2.20;99.90;;;0.43;100.00;100676.81;4991342;28;20050;-81
2023/03/05 05:51:37;;;;;;;7.47;3.03;;;2.20;99.90;;;0.37;100.00;100672.06;4994279;28;20092;-79
2023/03/05 05:54:02;;;;;;;7.05;2.90;;;2.00;99.90;;;0.33;100.00;100673.34;5008005;28;20370;-78
2023/03/05 05:56:28;;;;;;;12.35;3.22;;;2.00;99.90;;;0.18;100.00;100646.19;4976630;28;20041;-80
2023/03/05 05:58:54;;;;;;;9.45;3.30;;;2.00;99.90;;;0.37;100.00;100666.69;4993872;28;20038;-80
2023/03/05 06:01:30;;;;;;;7.68;3.28;;;2.10;99.90;;;0.39;100.00;100675.44;4991829;28;20057;-80
2023/03/05 06:03:56;;;;;;;8.82;3.05;;;2.10;99.90;;;0.39;100.00;100662.03;4993065;28;20096;-78
2023/03/05 06:06:25;;;;;;;9.25;3.13;;;2.10;99.90;;;0.48;100.00;100670.16;4993961;28;20035;-81
2023/03/05 06:08:52;;;;;;;11.30;3.47;;;2.20;99.90;;;0.52;100.00;100672.41;4975655;28;20544;-78
2023/03/05 06:11:19;;;;;;;11.90;3.55;;;2.20;99.90;;;0.55;100.00;100658.66;4992894;28;20482;-79
2023/03/05 06:13:46;;;;;;;13.10;3.60;;;2.30;99.90;;;0.49;100.00;100655.75;4993119;28;20049;-78
2023/03/05 06:16:16;;;;;;;10.60;3.60;;;2.20;99.90;;;0.56;100.00;100660.38;4991515;28;20030;-80
2023/03/05 06:18:42;;;;;;;10.65;3.47;;;2.30;99.90;;;0.59;100.00;100667.28;4989218;28;20037;-79
2023/03/05 06:21:13;;;;;;;10.25;3.20;;;2.30;99.90;;;0.66;100.00;100665.69;4992421;28;20390;-81
2023/03/05 06:23:40;;;;;;;9.70;3.67;;;2.40;99.90;;;0.66;100.00;100663.00;4993458;28;20133;-83
2023/03/05 06:26:07;;;;;;;13.25;3.67;;;2.40;99.90;;;0.70;100.00;100663.53;4991083;28;20035;-83
2023/03/05 06:28:34;;;;;;;7.95;2.72;;;2.40;99.90;;;0.70;100.00;100666.22;4993155;28;20030;-79
2023/03/05 06:31:13;;;;;;;9.30;3.53;;;2.40;99.90;;;0.73;100.00;100673.13;4993221;28;20100;-78
2023/03/05 06:33:40;;;;;;;11.23;3.10;;;2.50;99.90;;;0.73;100.00;100657.88;4989075;28;20038;-82
2023/03/05 06:36:10;;;;;;;9.00;3.23;;;2.50;99.90;;;0.77;100.00;100669.13;4993793;28;20039;-87
2023/03/05 06:38:37;;;;;;;10.55;3.47;;;2.50;99.90;;;0.71;100.00;100655.31;5009335;28;20295;-88
2023/03/05 06:41:10;;;;;;;9.27;3.40;;;2.50;99.90;;;0.79;100.00;100669.81;4999913;28;20116;-87
2023/03/05 06:43:39;;;;;;;12.95;4.03;;;2.50;99.90;;;0.82;100.00;100669.53;4998899;28;20057;-82
2023/03/05 06:46:11;;;;;;;10.70;3.92;;;2.50;99.90;;;0.84;100.00;100676.44;4993861;28;20045;-82
2023/03/05 06:48:37;;;;;;;11.57;3.65;;;2.60;99.90;;;0.85;100.00;100664.69;5004283;28;20046;-83
2023/03/05 06:51:03;;;;;;;10.43;3.35;;;2.60;99.90;;;0.75;100.00;100666.59;5009916;28;20038;-84
2023/03/05 06:53:28;;;;;;;8.50;3.47;;;2.50;99.90;;;0.69;100.00;100662.69;4994167;28;20042;-86
2023/03/05 06:55:54;;;;;;;12.35;3.58;;;2.50;99.90;;;0.57;100.00;100647.78;4986214;28;20038;-86
2023/03/05 06:58:20;;;;;;;7.15;3.25;;;2.40;99.90;;;0.70;100.00;100659.00;5013529;28;20390;-86
2023/03/05 07:00:46;;;;;;;8.43;3.45;;;2.40;99.90;;;0.70;100.00;100661.69;4994589;28;20027;-84
2023/03/05 07:03:12;;;;;;;9.57;3.30;;;2.50;99.90;;;0.83;100.00;100657.78;5011274;28;20958;-85
2023/03/05 07:05:42;;;;;;;7.20;3.53;;;2.50;99.90;;;0.84;100.00;100656.81;4991911;28;20040;-88
2023/03/05 07:08:08;;;;;;;10.32;3.53;;;2.60;99.90;;;0.84;100.00;100640.69;4991946;28;20069;-82
2023/03/05 07:10:42;;;;;;;10.25;3.58;;;2.60;99.90;;;0.92;100.00;100656.00;4991613;28;20046;-86
2023/03/05 07:13:09;;;;;;;6.93;3.58;;;2.60;99.90;;;0.97;100.00;100648.34;4991874;28;20573;-87
2023/03/05 07:15:39;;;;;;;14.50;3.28;;;2.70;99.90;;;1.06;100.00;100649.25;5000853;28;20461;-88
2023/03/05 07:18:05;;;;;;;9.77;3.50;;;2.70;99.90;;;1.08;100.00;100652.66;4993948;28;20042;-86
2023/03/05 07:20:34;;;;;;;8.85;3.20;;;2.80;99.90;;;1.11;100.00;100652.34;4998741;28;20557;-84
2023/03/05 07:23:01;;;;;;;8.50;2.97;;;2.80;99.90;;;1.15;100.00;100640.28;5006903;28;20043;-83
2023/03/05 07:25:26;;;;;;;10.93;3.50;;;2.90;99.90;;;1.19;100.00;100641.66;4992901;28;20170;-83
2023/03/05 07:27:52;;;;;;;9.23;3.38;;;2.90;99.90;;;1.22;100.00;100644.03;4993682;28;20055;-87
2023/03/05 07:30:18;;;;;;;9.98;3.67;;;2.90;99.90;;;1.17;100.00;100638.28;5008745;28;20540;-85
2023/03/05 07:32:43;;;;;;;7.60;3.10;;;2.90;99.90;;;1.20;100.00;100629.91;4992860;28;20038;-88
2023/03/05 07:35:09;;;;;;;6.75;2.60;;;3.00;99.90;;;1.36;100.00;100637.25;4993575;28;20065;-87
2023/03/05 07:37:35;;;;;;;14.00;5.30;;;3.10;99.90;;;1.39;100.00;100628.03;4994055;28;20046;-84
2023/03/05 07:40:01;;;;;;;13.10;3.28;;;3.10;99.90;;;1.49;100.00;100641.38;4994522;28;20481;-87
2023/03/05 07:42:27;;;;;;;8.25;3.30;;;3.20;99.90;;;1.56;100.00;100629.81;4992883;28;20038;-87
2023/03/05 07:45:08;;;;;;;8.32;3.08;;;3.30;99.90;;;1.62;100.00;100641.78;4991173;28;20506;-82
2023/03/05 07:47:34;;;;;;;7.17;2.77;;;3.40;99.90;;;1.51;100.00;100624.06;4991236;28;20045;-82
2023/03/05 07:50:00;;;;;;;6.80;2.72;;;3.30;99.90;;;1.53;100.00;100626.63;4988504;28;20072;-83
2023/03/05 07:52:26;;;;;;;9.30;2.95;;;3.30;99.90;;;1.50;100.00;100630.47;5007929;28;20026;-84
2023/03/05 07:54:51;;;;;;;7.03;2.40;;;3.30;99.90;;;1.60;100.00;100632.22;4993124;28;20030;-82
2023/03/05 07:57:17;;;;;;;9.25;2.50;;;3.30;99.90;;;1.55;100.00;100622.75;4970034;28;20038;-81
2023/03/05 07:59:43;;;;;;;8.82;2.60;;;3.30;99.90;;;1.57;100.00;100634.19;5000666;28;20533;-82
2023/03/05 08:02:12;;;;;;;6.20;2.35;;;3.30;99.90;;;1.54;100.00;100628.31;4991422;28;20045;-82
2023/03/05 08:04:38;;;;;;;4.10;2.67;;;3.30;99.90;;;1.46;100.00;100615.66;4983540;28;20038;-80
2023/03/05 08:07:04;;;;;;;7.18;2.58;;;3.30;99.90;;;1.46;100.00;100625.53;4991096;28;20386;-82
2023/03/05 08:09:30;;;;;;;7.70;2.30;;;3.20;99.90;;;1.31;100.00;100615.38;4991570;28;20045;-82
2023/03/05 08:11:55;;;;;;;6.72;2.58;;;3.20;99.90;;;1.38;100.00;100634.41;4992013;28;20042;-82
2023/03/05 08:14:21;;;;;;;7.10;2.55;;;3.10;99.90;;;1.37;100.00;100616.59;4991671;28;20503;-80
2023/03/05 08:16:51;;;;;;;7.05;2.38;;;3.10;99.90;;;1.37;100.00;100621.97;4990234;28;20117;-79
2023/03/05 08:19:20;;;;;;;6.85;2.58;;;3.10;99.90;;;1.29;100.00;100610.13;4991352;28;20125;-82
2023/03/05 08:21:46;;;;;;;8.20;2.60;;;3.10;99.90;;;1.36;100.00;100623.81;4991980;28;20030;-80
2023/03/05 08:24:13;;;;;;;6.88;2.17;;;3.10;99.90;;;1.34;100.00;100617.75;4995271;28;20570;-83
2023/03/05 08:26:40;;;;;;;8.00;2.17;;;3.10;99.90;;;1.32;100.00;100614.38;5000690;28;20430;-87
2023/03/05 08:29:09;;;;;;;5.90;2.40;;;3.10;99.90;;;1.29;100.00;100620.06;4989209;28;20038;-84
2023/03/05 08:31:36;;;;;;;7.00;2.97;;;3.00;99.90;;;1.39;100.00;100623.50;4986167;28;20050;-85
2023/03/05 08:34:04;;;;;;;6.97;2.78;;;3.10;99.90;;;1.45;100.00;100627.41;4990510;28;20125;-81
2023/03/05 08:36:31;;;;;;;6.97;3.22;;;3.20;99.90;;;1.53;100.00;100615.88;4991537;28;20133;-83
2023/03/05 08:38:58;;;;;;;7.22;2.75;;;3.30;99.90;;;1.68;100.00;100622.31;4995308;28;20052;-84
2023/03/05 08:41:24;;;;;;;7.40;3.50;;;3.40;99.90;;;1.68;100.00;100608.06;4989592;28;20042;-84
2023/03/05 08:43:50;;;;;;;10.07;4.10;;;3.50;99.90;;;1.94;100.00;100626.84;4991631;28;20373;-84
2023/03/05 08:46:16;;;;;;;7.88;3.13;;;3.70;99.90;;;1.78;100.00;100616.84;5005878;28;20441;-83
2023/03/05 08:48:42;;;;;;;5.93;3.15;;;3.70;99.90;;;1.67;100.00;100617.94;4991965;28;20053;-83
2023/03/05 08:51:11;;;;;;;6.63;3.17;;;3.50;99.90;;;1.67;100.00;100609.06;4990261;28;20034;-83
2023/03/05 08:53:38;;;;;;;6.35;3.25;;;3.40;99.90;;;1.71;100.00;100600.47;4988397;28;20054;-85
2023/03/05 08:56:05;;;;;;;7.95;2.70;;;3.60;99.90;;;1.98;100.00;100624.69;4973325;28;20037;-84
2023/03/05 08:58:31;;;;;;;8.63;3.03;;;3.60;99.90;;;2.06;100.00;100616.63;4990920;28;20478;-83
2023/03/05 09:00:57;;;;;;;8.23;2.70;;;3.80;99.90;;;2.07;100.00;100614.81;4989539;28;20038;-81
2023/03/05 09:03:23;;;;;;;6.90;2.50;;;3.90;99.90;;;1.98;100.00;100609.38;4993024;28;20041;-80
2023/03/05 09:05:50;;;;;;;6.03;2.63;;;3.80;99.90;;;2.24;100.00;100613.00;4994363;28;20039;-85
2023/03/05 09:08:16;;;;;;;9.38;2.13;;;4.00;99.90;;;2.16;100.00;100608.44;4991778;28;20072;-85
2023/03/05 09:10:43;;;;;;;4.97;2.20;;;4.00;99.90;;;2.11;100.00;100595.44;4992557;28;20050;-84
2023/03/05 09:13:09;;;;;;;6.60;2.70;;;4.00;99.90;;;2.15;100.00;100604.91;5007358;28;20038;-80
2023/03/05 09:15:36;;;;;;;7.60;3.25;;;4.00;99.90;;;2.13;100.00;100608.75;4994249;28;20038;-84
2023/03/05 09:18:02;;;;;;;6.70;3.20;;;3.90;99.90;;;2.12;100.00;100604.38;4993006;28;20034;-84
2023/03/05 09:20:27;;;;;;;5.90;2.30;;;3.90;99.90;;;2.19;100.00;100612.66;4994926;28;20034;-83
2023/03/05 09:22:53;;;;;;;3.70;1.45;;;4.00;99.90;;;2.03;100.00;100606.19;4993253;28;20037;-80
2023/03/05 09:25:20;;;;;;;9.68;2.92;;;3.90;99.90;;;1.82;100.00;100598.53;5003213;28;20631;-81
2023/03/05 09:27:45;;;;;;;6.28;3.05;;;3.70;99.90;;;1.93;100.00;100583.97;4970365;28;20168;-83
2023/03/05 09:30:13;;;;;;;7.47;3.25;;;3.80;99.90;;;2.49;100.00;100608.53;4992526;28;20130;-81
2023/03/05 09:32:38;;;;;;;5.65;3.08;;;4.10;99.90;;;2.26;100.00;100601.09;4988879;28;20039;-84
2023/03/05 09:35:06;;;;;;;7.20;2.90;;;4.20;99.90;;;2.14;100.00;100603.22;4992253;28;20034;-80
2023/03/05 09:37:32;;;;;;;7.90;2.97;;;4.10;99.90;;;2.18;100.00;100608.28;4992619;28;20506;-81
2023/03/05 09:39:58;;;;;;;9.77;3.00;;;4.00;99.90;;;1.98;100.00;100614.75;4994080;28;20053;-83
2023/03/05 09:43:14;;;;;;;7.55;3.25;;;3.90;99.90;;;1.89;100.00;100609.50;4989036;28;20588;-80
2023/03/05 09:46:21;;;;;;;7.53;3.45;;;3.70;99.90;;;1.83;100.00;100609.13;4993358;28;20047;-81
2023/03/05 09:48:52;;;;;;;13.35;3.80;;;3.70;99.90;;;2.00;100.00;100595.75;4974191;28;20042;-80
2023/03/05 09:51:30;;;;;;;9.02;3.92;;;3.80;99.90;;;2.54;100.00;100584.66;4990620;28;20088;-82
2023/03/05 09:54:39;;;;;;;9.85;4.60;;;4.20;99.90;;;2.98;100.00;100594.31;4993001;28;20042;-79
2023/03/05 09:57:17;;;;;;;9.85;4.47;;;4.70;99.90;;;3.15;100.00;100587.03;4988139;28;20050;-82
2023/03/05 10:00:07;;;;;;;10.60;3.10;;;5.00;99.90;;;2.99;100.00;100590.59;4976746;28;20095;-81
2023/03/05 10:02:49;;;;;;;7.38;2.40;;;5.00;99.90;;;2.86;100.00;100579.47;4995346;28;20046;-84
2023/03/05 10:05:56;;;;;;;5.68;2.50;;;5.00;99.90;;;2.86;100.00;100576.75;4994265;28;20030;-82
2023/03/05 10:08:48;;;;;;;3.78;2.05;;;4.70;99.90;;;3.04;100.00;100581.16;4993422;28;20107;-84
2023/03/05 10:11:36;;;;;;;6.32;1.88;;;5.10;99.90;;;2.91;100.00;100565.50;4993269;28;20055;-82
2023/03/05 10:14:03;;;;;;;5.50;1.58;;;4.90;99.90;;;2.79;100.00;100573.06;4998928;28;20035;-81
2023/03/05 10:16:39;;;;;;;6.70;1.88;;;4.70;99.90;;;2.90;100.00;100577.28;4994782;28;20125;-79
2023/03/05 10:19:36;;;;;;;5.38;1.77;;;4.70;99.90;;;3.19;100.00;100559.75;4992481;28;20073;-79